Time;durP1;ratioP1;P1;durP2;ratioP2;P2;SDS_P1;SDS_P2;PMS_P1;PMS_P2;Temp;Humidity;BMP_temperature;BMP_pressure;BME280_temperature;BME280_humidity;BME280_pressure;Samples;Min_cycle;Max_cycle;Signal;HPM_P1;HPM_P2
2021/06/21 00:01:45;;;;;;;4.40;2.47;;;19.10;99.90;;;;;;6197416;23;20438;-89
2021/06/21 00:04:12;;;;;;;8.83;3.10;;;19.10;99.90;;;;;;6201823;23;20408;-88
2021/06/21 00:06:39;;;;;;;6.70;3.30;;;19.10;99.90;;;;;;6208127;23;20430;-89
2021/06/21 00:09:06;;;;;;;9.53;3.40;;;19.20;99.90;;;;;;6193559;23;20403;-89
2021/06/21 00:11:33;;;;;;;7.17;2.57;;;19.20;99.90;;;;;;6189784;23;20411;-89
2021/06/21 00:14:00;;;;;;;6.27;2.97;;;19.10;99.90;;;;;;6188946;23;20405;-88
2021/06/21 00:16:27;;;;;;;5.67;3.03;;;19.10;99.90;;;;;;6187335;23;20414;-88
2021/06/21 00:18:55;;;;;;;5.93;2.80;;;19.20;99.90;;;;;;6187230;23;20418;-89
2021/06/21 00:21:23;;;;;;;11.30;2.23;;;19.20;99.90;;;;;;6192143;23;20382;-88
2021/06/21 00:23:49;;;;;;;6.20;2.50;;;19.20;99.90;;;;;;6210960;23;20404;-88
2021/06/21 00:26:16;;;;;;;12.00;2.77;;;19.20;99.90;;;;;;6200899;23;20412;-88
2021/06/21 00:28:43;;;;;;;7.70;2.70;;;19.20;99.90;;;;;;6187791;23;20399;-89
2021/06/21 00:31:10;;;;;;;5.03;3.23;;;19.20;99.90;;;;;;6187673;23;20747;-89
2021/06/21 00:33:37;;;;;;;6.60;3.87;;;19.20;99.90;;;;;;6188563;23;20405;-90
2021/06/21 00:36:06;;;;;;;7.13;2.70;;;19.20;99.90;;;;;;6193455;23;20414;-88
2021/06/21 00:38:33;;;;;;;10.03;3.10;;;19.30;99.90;;;;;;6200513;23;20420;-88
2021/06/21 00:41:00;;;;;;;6.87;2.53;;;19.30;99.90;;;;;;6214191;23;20396;-88
2021/06/21 00:43:26;;;;;;;6.97;3.00;;;19.30;99.90;;;;;;6205052;23;20446;-89
2021/06/21 00:45:53;;;;;;;8.20;2.90;;;19.30;99.90;;;;;;6210724;23;20401;-88
2021/06/21 00:48:20;;;;;;;6.93;2.40;;;19.30;99.90;;;;;;6207273;23;20446;-88
2021/06/21 00:50:46;;;;;;;8.33;2.97;;;19.30;99.90;;;;;;6191785;23;20403;-89
2021/06/21 00:53:15;;;;;;;3.87;2.03;;;19.30;99.90;;;;;;6189998;23;20916;-89
2021/06/21 00:55:42;;;;;;;7.20;2.40;;;19.30;99.90;;;;;;6206147;23;20410;-88
2021/06/21 00:58:09;;;;;;;9.37;3.40;;;19.30;99.90;;;;;;6189835;23;20761;-89
2021/06/21 01:00:36;;;;;;;4.83;2.60;;;19.40;99.90;;;;;;6190248;23;20406;-89
2021/06/21 01:03:05;;;;;;;5.07;2.57;;;19.40;99.90;;;;;;6188796;23;20444;-90
2021/06/21 01:05:35;;;;;;;7.30;2.40;;;19.30;99.90;;;;;;6187222;23;20390;-88
2021/06/21 01:08:03;;;;;;;7.87;3.07;;;19.10;99.90;;;;;;6187822;23;20516;-90
2021/06/21 01:10:32;;;;;;;7.77;3.03;;;18.90;99.90;;;;;;6194493;23;20394;-88
2021/06/21 01:13:23;;;;;;;7.17;3.53;;;18.90;99.90;;;;;;6209922;23;20489;-88
2021/06/21 01:15:58;;;;;;;6.27;3.60;;;18.70;99.90;;;;;;6209397;23;20474;-88
2021/06/21 01:18:30;;;;;;;7.47;2.53;;;18.70;99.90;;;;;;6195925;23;20425;-89
2021/06/21 01:21:23;;;;;;;7.70;3.10;;;18.70;99.90;;;;;;6210503;23;20375;-88
2021/06/21 01:24:27;;;;;;;4.00;2.30;;;18.70;99.90;;;;;;6209372;23;20378;-89
2021/06/21 01:27:12;;;;;;;7.47;2.90;;;18.70;99.90;;;;;;6196829;23;20482;-88
2021/06/21 01:29:49;;;;;;;7.23;3.10;;;18.80;99.90;;;;;;6188515;23;20469;-87
2021/06/21 01:32:32;;;;;;;4.00;2.73;;;18.80;99.90;;;;;;6189199;23;20867;-87
2021/06/21 01:35:02;;;;;;;6.83;3.50;;;18.70;99.90;;;;;;6187664;23;20382;-86
2021/06/21 01:37:30;;;;;;;8.80;3.00;;;18.80;99.90;;;;;;6187126;23;20787;-87
2021/06/21 01:40:00;;;;;;;10.10;3.10;;;18.80;99.90;;;;;;6186584;23;20401;-87
2021/06/21 01:42:28;;;;;;;6.43;2.63;;;18.80;99.90;;;;;;6194810;23;20426;-86
2021/06/21 01:45:00;;;;;;;5.50;2.80;;;18.90;99.90;;;;;;6186733;23;20900;-86
2021/06/21 01:47:29;;;;;;;5.70;3.13;;;18.80;99.90;;;;;;6185403;23;20438;-86
2021/06/21 01:49:58;;;;;;;5.77;2.50;;;18.90;99.90;;;;;;6186200;23;20409;-87
2021/06/21 01:52:26;;;;;;;5.57;2.87;;;18.90;99.90;;;;;;6185286;23;20417;-87
2021/06/21 01:54:57;;;;;;;8.57;2.80;;;18.90;99.90;;;;;;6185610;23;20903;-86
2021/06/21 01:57:26;;;;;;;7.53;3.27;;;18.90;99.90;;;;;;6185609;23;20422;-86
2021/06/21 01:59:54;;;;;;;7.40;3.40;;;18.90;99.90;;;;;;6190409;23;20406;-85
2021/06/21 02:02:23;;;;;;;17.40;4.20;;;19.00;99.90;;;;;;6193961;23;20749;-87
2021/06/21 02:04:55;;;;;;;10.90;3.43;;;19.00;99.90;;;;;;6188852;23;20403;-87
2021/06/21 02:07:24;;;;;;;11.23;3.80;;;19.00;99.90;;;;;;6188049;23;20426;-87
2021/06/21 02:09:54;;;;;;;5.47;2.50;;;19.00;99.90;;;;;;6187404;23;20410;-87
2021/06/21 02:12:22;;;;;;;9.10;2.60;;;19.00;99.90;;;;;;6188625;23;20395;-87
2021/06/21 02:14:50;;;;;;;7.90;2.63;;;19.00;99.90;;;;;;6187449;23;20430;-86
2021/06/21 02:17:20;;;;;;;6.50;3.07;;;19.00;99.90;;;;;;6186228;23;20425;-86
2021/06/21 02:19:47;;;;;;;13.60;2.70;;;19.00;99.90;;;;;;6186245;23;20741;-86
2021/06/21 02:22:15;;;;;;;4.80;2.70;;;19.00;99.90;;;;;;6188079;23;20444;-86
2021/06/21 02:24:42;;;;;;;7.40;3.10;;;19.00;99.90;;;;;;6187054;23;20411;-86
2021/06/21 02:27:10;;;;;;;8.43;2.90;;;18.90;99.90;;;;;;6187586;23;20435;-86
2021/06/21 02:29:39;;;;;;;8.90;2.97;;;18.90;99.90;;;;;;6187565;23;20927;-87
2021/06/21 02:32:06;;;;;;;4.23;2.20;;;18.80;99.90;;;;;;6202725;23;20386;-87
2021/06/21 02:34:33;;;;;;;12.27;3.60;;;18.80;99.90;;;;;;6200032;23;20739;-88
2021/06/21 02:37:00;;;;;;;11.07;4.63;;;18.80;99.90;;;;;;6201657;23;20410;-88
2021/06/21 02:39:28;;;;;;;8.57;3.27;;;18.80;99.90;;;;;;6208517;23;20399;-87
2021/06/21 02:41:55;;;;;;;10.10;3.23;;;18.80;99.90;;;;;;6208820;23;20383;-88
2021/06/21 02:44:21;;;;;;;10.70;3.40;;;18.80;99.90;;;;;;6201221;23;20401;-89
2021/06/21 02:46:48;;;;;;;8.43;3.17;;;18.90;99.90;;;;;;6195611;23;20432;-88
2021/06/21 02:49:15;;;;;;;10.30;4.03;;;19.00;99.90;;;;;;6192934;23;20407;-88
2021/06/21 02:51:44;;;;;;;7.97;3.70;;;19.00;99.90;;;;;;6209968;23;20397;-89
2021/06/21 02:54:20;;;;;;;8.13;3.00;;;19.00;99.90;;;;;;6192099;23;20397;-88
2021/06/21 02:56:57;;;;;;;7.07;3.40;;;19.00;99.90;;;;;;6187003;23;20791;-89
2021/06/21 02:59:25;;;;;;;12.63;3.60;;;19.00;99.90;;;;;;6189720;23;20479;-88
2021/06/21 03:01:55;;;;;;;7.60;3.53;;;18.90;99.90;;;;;;6192235;23;20893;-89
2021/06/21 03:04:24;;;;;;;11.70;3.07;;;19.00;99.90;;;;;;6204164;23;20449;-91
2021/06/21 03:06:52;;;;;;;6.00;4.07;;;19.00;99.90;;;;;;6215371;23;20417;-91
2021/06/21 03:09:20;;;;;;;7.93;3.17;;;19.00;99.90;;;;;;6221541;23;20401;-90
2021/06/21 03:11:53;;;;;;;10.60;2.80;;;19.00;99.90;;;;;;6221010;23;20405;-91
2021/06/21 03:14:22;;;;;;;12.53;4.50;;;19.10;99.90;;;;;;6191800;23;20415;-91
2021/06/21 03:16:51;;;;;;;7.10;4.00;;;19.00;99.90;;;;;;6212449;23;20490;-93
2021/06/21 03:19:18;;;;;;;8.40;3.40;;;19.00;99.90;;;;;;6187659;23;20411;-91
2021/06/21 03:21:46;;;;;;;9.40;3.10;;;19.10;99.90;;;;;;6187053;23;20391;-91
2021/06/21 03:24:14;;;;;;;11.60;3.13;;;19.10;99.90;;;;;;6190390;23;20451;-91
2021/06/21 03:26:41;;;;;;;8.60;4.00;;;19.10;99.90;;;;;;6207477;23;20409;-92
2021/06/21 03:29:15;;;;;;;9.10;3.63;;;19.10;99.90;;;;;;6195922;23;20477;-91
2021/06/21 03:31:44;;;;;;;7.33;3.20;;;19.10;99.90;;;;;;6209468;23;20363;-91
2021/06/21 03:34:11;;;;;;;5.67;2.67;;;19.20;99.90;;;;;;6202268;23;20410;-91
2021/06/21 03:36:38;;;;;;;7.33;2.60;;;19.20;99.90;;;;;;6212975;23;20402;-92
2021/06/21 03:39:05;;;;;;;10.10;3.13;;;19.20;99.90;;;;;;6203367;23;20874;-91
2021/06/21 03:41:32;;;;;;;9.00;2.77;;;19.30;99.90;;;;;;6184959;23;20425;-91
2021/06/21 03:43:59;;;;;;;10.03;2.90;;;19.30;99.90;;;;;;6184943;23;20449;-92
2021/06/21 03:46:29;;;;;;;13.10;4.40;;;19.30;99.90;;;;;;6184674;23;20410;-90
2021/06/21 03:48:55;;;;;;;11.70;3.60;;;19.30;99.90;;;;;;6186030;23;20411;-92
2021/06/21 03:51:24;;;;;;;9.13;2.93;;;19.30;99.90;;;;;;6186956;23;20420;-91
2021/06/21 03:53:51;;;;;;;5.80;2.57;;;19.20;99.90;;;;;;6186202;23;20434;-91
2021/06/21 03:56:18;;;;;;;5.40;2.53;;;19.20;99.90;;;;;;6187153;23;20402;-91
2021/06/21 03:58:45;;;;;;;11.13;3.00;;;19.30;99.90;;;;;;6187437;23;20743;-91
2021/06/21 04:01:12;;;;;;;5.90;2.63;;;19.30;99.90;;;;;;6193001;23;20406;-90
2021/06/21 04:03:40;;;;;;;12.77;2.63;;;19.30;99.90;;;;;;6198605;23;20466;-91
2021/06/21 04:06:08;;;;;;;6.27;2.73;;;19.40;99.90;;;;;;6191806;23;20410;-91
2021/06/21 04:08:34;;;;;;;6.00;2.70;;;19.40;99.90;;;;;;6188035;23;20897;-91
2021/06/21 04:11:01;;;;;;;10.07;3.30;;;19.40;99.90;;;;;;6199639;23;20397;-91
2021/06/21 04:13:29;;;;;;;7.50;2.87;;;19.50;99.90;;;;;;6205633;23;20541;-91
2021/06/21 04:15:55;;;;;;;9.90;2.90;;;19.50;99.90;;;;;;6187672;23;20410;-91
2021/06/21 04:18:24;;;;;;;8.97;2.87;;;19.50;99.90;;;;;;6186029;23;20471;-91
2021/06/21 04:20:52;;;;;;;7.20;3.00;;;19.50;99.90;;;;;;6186567;23;20438;-91
2021/06/21 04:23:19;;;;;;;8.20;3.00;;;19.50;99.90;;;;;;6186807;23;20984;-91
2021/06/21 04:25:45;;;;;;;12.13;3.37;;;19.50;99.90;;;;;;6185988;23;20392;-91
2021/06/21 04:28:12;;;;;;;6.20;3.10;;;19.60;99.90;;;;;;6186946;23;20404;-90
2021/06/21 04:30:39;;;;;;;12.20;5.40;;;19.70;99.90;;;;;;6186514;23;20415;-90
2021/06/21 04:33:07;;;;;;;6.90;3.57;;;19.70;99.90;;;;;;6188265;23;20427;-91
2021/06/21 04:35:34;;;;;;;8.43;2.50;;;19.70;99.90;;;;;;6186500;23;20460;-90
2021/06/21 04:38:02;;;;;;;8.87;3.43;;;19.70;99.90;;;;;;6187103;23;20416;-91
2021/06/21 04:40:31;;;;;;;5.80;2.63;;;19.70;99.90;;;;;;6186931;23;20396;-90
2021/06/21 04:42:58;;;;;;;8.57;2.20;;;19.80;99.90;;;;;;6211523;23;20643;-91
2021/06/21 04:45:26;;;;;;;3.87;2.60;;;19.70;99.90;;;;;;6195288;23;20399;-91
2021/06/21 04:47:55;;;;;;;9.57;2.53;;;19.70;99.90;;;;;;6189087;23;20430;-90
2021/06/21 04:50:27;;;;;;;8.10;3.17;;;19.60;99.90;;;;;;6188265;23;20733;-91
2021/06/21 04:52:54;;;;;;;7.80;2.80;;;19.60;99.90;;;;;;6188396;23;20420;-90
2021/06/21 04:55:23;;;;;;;7.10;2.77;;;19.40;99.90;;;;;;6186450;23;20413;-91
2021/06/21 04:57:51;;;;;;;5.67;2.87;;;19.40;99.90;;;;;;6186811;23;20395;-91
2021/06/21 05:00:20;;;;;;;6.50;2.83;;;19.40;99.90;;;;;;6190161;23;20713;-89
2021/06/21 05:02:47;;;;;;;8.17;3.63;;;19.40;99.90;;;;;;6211520;23;20411;-89
2021/06/21 05:05:14;;;;;;;11.63;4.50;;;19.50;99.90;;;;;;6191407;23;20371;-89
2021/06/21 05:07:42;;;;;;;7.83;3.60;;;19.50;99.90;;;;;;6187874;23;20403;-89
2021/06/21 05:10:12;;;;;;;11.00;2.80;;;19.60;99.90;;;;;;6201843;23;20485;-89
2021/06/21 05:12:40;;;;;;;8.73;3.13;;;19.60;99.90;;;;;;6213922;23;20414;-88
2021/06/21 05:15:08;;;;;;;7.67;2.43;;;19.60;99.90;;;;;;6204624;23;20414;-89
2021/06/21 05:17:34;;;;;;;5.97;2.70;;;19.70;99.90;;;;;;6208384;23;20398;-89
2021/06/21 05:20:01;;;;;;;8.30;4.13;;;19.80;99.90;;;;;;6212450;23;20395;-89
2021/06/21 05:22:28;;;;;;;5.27;2.40;;;19.90;99.90;;;;;;6196002;23;20414;-89
2021/06/21 05:24:55;;;;;;;8.60;3.70;;;20.30;99.90;;;;;;6203298;23;20444;-89
2021/06/21 05:27:22;;;;;;;10.77;3.47;;;21.00;99.90;;;;;;6200428;23;20405;-89
2021/06/21 05:29:50;;;;;;;5.40;2.50;;;21.60;99.90;;;;;;6193721;23;20440;-89
2021/06/21 05:32:17;;;;;;;7.07;3.30;;;22.30;99.90;;;;;;6203890;23;20479;-89
2021/06/21 05:34:44;;;;;;;5.40;2.10;;;23.00;99.90;;;;;;6211614;23;20427;-90
2021/06/21 05:40:19;;;;;;;8.47;3.00;;;24.00;99.90;;;;;;6021238;23;20481;-87
2021/06/21 05:43:02;;;;;;;7.93;2.30;;;24.30;99.90;;;;;;6180149;23;20948;-86
2021/06/21 05:45:37;;;;;;;5.73;2.10;;;24.20;99.20;;;;;;6188374;23;20616;-87
2021/06/21 05:48:07;;;;;;;5.50;2.47;;;24.10;98.70;;;;;;6188146;23;20875;-86
2021/06/21 05:50:37;;;;;;;92.33;16.83;;;24.00;98.50;;;;;;6187723;23;20487;-89
2021/06/21 05:53:04;;;;;;;6.33;2.43;;;24.10;99.30;;;;;;6187903;23;20426;-88
2021/06/21 05:55:31;;;;;;;3.83;1.83;;;24.30;98.40;;;;;;6188795;23;20421;-87
2021/06/21 05:58:08;;;;;;;5.23;2.13;;;24.30;98.10;;;;;;6193168;23;20406;-89
2021/06/21 06:03:50;;;;;;;8.77;2.40;;;23.40;99.00;;;;;;6205527;23;20448;-89
2021/06/21 06:06:25;;;;;;;5.00;2.27;;;23.80;99.90;;;;;;6212271;23;20397;-90
2021/06/21 06:08:52;;;;;;;6.43;3.27;;;24.00;99.20;;;;;;6213172;23;20452;-90
2021/06/21 06:11:19;;;;;;;104.97;21.57;;;24.50;98.00;;;;;;6202407;23;20402;-91
2021/06/21 06:13:58;;;;;;;47.70;14.93;;;24.90;97.30;;;;;;6211813;23;20478;-92
2021/06/21 06:16:27;;;;;;;25.10;6.10;;;24.80;96.10;;;;;;6211067;23;20401;-90
2021/06/21 06:18:55;;;;;;;6.00;2.03;;;24.90;95.50;;;;;;6203970;23;20442;-85
2021/06/21 06:21:22;;;;;;;6.30;2.50;;;24.90;95.00;;;;;;6200909;23;20402;-86
2021/06/21 06:23:49;;;;;;;5.40;1.93;;;25.10;95.60;;;;;;6200687;23;20448;-86
2021/06/21 06:26:15;;;;;;;8.93;2.50;;;25.30;94.30;;;;;;6187787;23;20432;-86
2021/06/21 06:28:43;;;;;;;5.77;1.97;;;25.70;93.00;;;;;;6188329;23;20475;-90
2021/06/21 06:31:10;;;;;;;8.13;3.27;;;26.00;92.40;;;;;;6186613;23;20413;-86
2021/06/21 06:33:37;;;;;;;6.57;2.30;;;26.60;91.60;;;;;;6192489;23;20429;-86
2021/06/21 06:36:06;;;;;;;5.47;2.37;;;27.20;90.30;;;;;;6188790;23;20408;-86
2021/06/21 06:38:33;;;;;;;25.93;6.90;;;27.80;87.10;;;;;;6186508;23;20406;-86
2021/06/21 06:41:04;;;;;;;14.60;4.17;;;28.20;86.10;;;;;;6187972;23;20410;-86
2021/06/21 06:43:31;;;;;;;30.43;9.00;;;28.60;82.90;;;;;;6183355;23;20452;-86
2021/06/21 06:45:57;;;;;;;11.00;4.10;;;28.50;80.50;;;;;;6186291;23;20901;-87
2021/06/21 06:48:25;;;;;;;11.50;3.47;;;28.50;81.10;;;;;;6188728;23;20414;-86
2021/06/21 06:50:51;;;;;;;2.67;1.90;;;29.00;78.80;;;;;;6184217;23;20402;-86
2021/06/21 06:53:27;;;;;;;6.63;2.97;;;28.90;77.60;;;;;;6184301;23;20472;-86
2021/06/21 06:58:38;;;;;;;6.57;1.90;;;28.30;78.60;;;;;;6189777;23;20393;-87
2021/06/21 07:01:05;;;;;;;4.77;2.20;;;28.40;79.40;;;;;;6189268;23;20409;-88
2021/06/21 07:03:31;;;;;;;19.37;4.63;;;28.70;78.40;;;;;;6184556;23;20453;-89
2021/06/21 07:05:58;;;;;;;286.30;60.27;;;29.10;75.30;;;;;;6189717;23;20421;-89
2021/06/21 07:08:26;;;;;;;17.73;4.90;;;29.30;76.10;;;;;;6195294;23;20406;-90
2021/06/21 07:10:53;;;;;;;4.53;1.97;;;29.20;74.00;;;;;;6204621;23;20470;-89
2021/06/21 07:13:20;;;;;;;7.47;2.03;;;29.60;74.30;;;;;;6208910;23;20438;-89
2021/06/21 07:15:46;;;;;;;3.83;1.93;;;29.80;72.60;;;;;;6190506;23;20406;-89
2021/06/21 07:18:13;;;;;;;4.50;1.60;;;29.80;71.70;;;;;;6188554;23;20892;-90
2021/06/21 07:20:40;;;;;;;5.13;1.97;;;29.80;71.40;;;;;;6187146;23;21116;-89
2021/06/21 07:23:06;;;;;;;5.73;2.00;;;29.40;72.20;;;;;;6186489;23;20438;-89
2021/06/21 07:25:35;;;;;;;5.90;2.90;;;29.20;71.50;;;;;;6187857;23;20449;-89
2021/06/21 07:28:01;;;;;;;4.13;1.63;;;29.30;71.40;;;;;;6190336;23;20472;-89
2021/06/21 07:30:28;;;;;;;8.40;2.40;;;29.40;72.30;;;;;;6210951;23;20402;-89
2021/06/21 07:32:55;;;;;;;4.03;1.90;;;29.80;71.10;;;;;;6211852;23;20432;-90
2021/06/21 07:35:21;;;;;;;6.57;1.87;;;29.90;69.50;;;;;;6204985;23;20405;-89
2021/06/21 07:37:48;;;;;;;3.40;1.70;;;29.90;69.00;;;;;;6202802;23;20401;-89
2021/06/21 07:40:15;;;;;;;6.10;1.70;;;30.20;67.60;;;;;;6189710;23;20782;-89
2021/06/21 07:42:43;;;;;;;2.73;1.60;;;30.30;67.00;;;;;;6191130;23;20436;-90
2021/06/21 07:45:12;;;;;;;8.20;3.00;;;30.90;65.20;;;;;;6191759;23;20782;-90
2021/06/21 07:47:38;;;;;;;3.60;1.53;;;30.90;63.60;;;;;;6189787;23;20475;-89
2021/06/21 07:50:06;;;;;;;6.00;2.57;;;31.40;62.90;;;;;;6189377;23;20413;-89
2021/06/21 07:52:33;;;;;;;5.83;2.07;;;31.90;63.00;;;;;;6191686;23;20408;-86
2021/06/21 07:55:00;;;;;;;3.53;1.50;;;32.40;61.30;;;;;;6190720;23;20472;-89
2021/06/21 07:57:27;;;;;;;4.10;2.23;;;32.90;59.00;;;;;;6189746;23;20410;-87
2021/06/21 07:59:56;;;;;;;6.17;1.90;;;32.80;58.70;;;;;;6189262;23;20410;-88
2021/06/21 08:02:22;;;;;;;10.97;2.97;;;32.80;58.20;;;;;;6188653;23;20414;-87
2021/06/21 08:04:50;;;;;;;6.70;2.20;;;33.20;58.30;;;;;;6189325;23;20442;-88
2021/06/21 08:07:18;;;;;;;4.07;2.23;;;32.90;56.40;;;;;;6195147;23;20440;-89
2021/06/21 08:09:44;;;;;;;4.53;1.80;;;32.40;57.90;;;;;;6208615;23;20414;-87
2021/06/21 08:12:11;;;;;;;2.70;1.90;;;32.60;58.10;;;;;;6213515;23;20410;-86
2021/06/21 08:14:41;;;;;;;11.30;4.07;;;33.00;57.90;;;;;;6207102;23;20440;-88
2021/06/21 08:17:09;;;;;;;31.13;13.23;;;32.40;56.50;;;;;;6197117;23;20409;-87
2021/06/21 08:19:35;;;;;;;3.30;1.50;;;32.50;57.20;;;;;;6210629;23;20412;-87
2021/06/21 08:22:02;;;;;;;4.30;1.97;;;32.20;57.10;;;;;;6204368;23;20406;-87
2021/06/21 08:24:30;;;;;;;6.50;2.50;;;32.50;57.30;;;;;;6192791;23;20445;-88
2021/06/21 08:27:00;;;;;;;6.30;2.40;;;32.90;56.10;;;;;;6201294;23;20402;-89
2021/06/21 08:29:27;;;;;;;5.63;2.50;;;33.00;56.80;;;;;;6209976;23;20718;-89
2021/06/21 08:31:53;;;;;;;4.20;1.63;;;33.20;55.50;;;;;;6203171;23;20629;-87
2021/06/21 08:34:21;;;;;;;9.03;2.07;;;32.70;55.70;;;;;;6196315;23;20422;-88
2021/06/21 08:36:48;;;;;;;4.87;2.20;;;32.40;56.00;;;;;;6196510;23;20729;-89
2021/06/21 08:39:15;;;;;;;2.93;2.03;;;32.10;57.70;;;;;;6196275;23;20750;-89
2021/06/21 08:41:42;;;;;;;5.20;1.73;;;31.90;56.90;;;;;;6193109;23;20428;-89
2021/06/21 08:44:10;;;;;;;8.77;2.90;;;31.70;57.10;;;;;;6194383;23;20442;-87
2021/06/21 08:46:37;;;;;;;4.13;1.40;;;32.50;57.50;;;;;;6195146;23;20425;-88
2021/06/21 08:49:05;;;;;;;4.50;2.60;;;33.70;55.30;;;;;;6193215;23;20406;-87
2021/06/21 08:51:36;;;;;;;6.07;2.00;;;34.40;53.20;;;;;;6194419;23;20413;-87
2021/06/21 08:54:03;;;;;;;4.63;2.27;;;34.30;52.50;;;;;;6197465;23;20421;-87
2021/06/21 08:56:29;;;;;;;7.10;2.40;;;34.10;52.80;;;;;;6197165;23;20414;-87
2021/06/21 08:58:56;;;;;;;12.50;4.30;;;34.10;52.00;;;;;;6194195;23;20406;-88
2021/06/21 09:01:23;;;;;;;4.40;2.20;;;34.80;52.20;;;;;;6197291;23;20406;-88
2021/06/21 09:03:51;;;;;;;3.00;1.50;;;35.00;50.60;;;;;;6204581;23;20418;-88
2021/06/21 09:06:22;;;;;;;5.50;2.80;;;34.60;50.90;;;;;;6205298;23;20410;-88
2021/06/21 09:08:58;;;;;;;5.03;1.70;;;34.80;49.80;;;;;;6204415;23;20406;-88
2021/06/21 09:11:54;;;;;;;4.13;1.90;;;34.10;50.40;;;;;;6199420;23;20442;-88
2021/06/21 09:14:32;;;;;;;5.70;2.70;;;34.70;51.20;;;;;;6204697;23;20485;-88
2021/06/21 09:17:00;;;;;;;4.27;1.70;;;35.40;49.70;;;;;;6195029;23;20450;-87
2021/06/21 09:19:28;;;;;;;3.00;1.83;;;35.40;48.20;;;;;;6195981;23;20433;-87
2021/06/21 09:21:54;;;;;;;3.20;1.67;;;35.10;48.50;;;;;;6197618;23;20402;-87
2021/06/21 09:24:24;;;;;;;2.87;1.53;;;35.10;49.70;;;;;;6195107;23;20456;-87
2021/06/21 09:26:53;;;;;;;5.43;2.57;;;35.50;49.00;;;;;;6195154;23;20911;-86
2021/06/21 09:29:33;;;;;;;3.03;2.17;;;35.10;48.30;;;;;;6191300;23;20470;-87
2021/06/21 09:32:00;;;;;;;3.67;1.80;;;35.70;49.60;;;;;;6207951;23;20377;-86
2021/06/21 09:34:28;;;;;;;4.80;2.43;;;36.90;46.90;;;;;;6213078;23;20409;-86
2021/06/21 09:36:56;;;;;;;3.50;1.60;;;38.00;45.50;;;;;;6194380;23;20492;-87
2021/06/21 09:39:26;;;;;;;3.03;2.23;;;38.50;45.00;;;;;;6210004;23;20466;-89
2021/06/21 09:42:11;;;;;;;3.33;1.60;;;39.20;43.30;;;;;;6206742;23;20480;-89
2021/06/21 09:44:40;;;;;;;7.57;2.50;;;39.10;41.70;;;;;;6192424;23;20493;-89
2021/06/21 09:47:28;;;;;;;4.40;2.10;;;38.70;42.80;;;;;;6189323;23;20457;-90
2021/06/21 09:50:19;;;;;;;4.80;1.73;;;38.40;42.30;;;;;;6191066;23;20451;-90
2021/06/21 09:52:49;;;;;;;4.27;1.70;;;38.30;43.00;;;;;;6189133;23;20452;-89
2021/06/21 09:55:31;;;;;;;5.93;2.63;;;38.40;41.50;;;;;;6188931;23;20398;-88
2021/06/21 09:58:06;;;;;;;4.37;1.50;;;36.90;43.40;;;;;;6188481;23;20424;-89
2021/06/21 10:00:33;;;;;;;8.87;3.77;;;37.00;44.70;;;;;;6189628;23;20392;-90
2021/06/21 10:03:11;;;;;;;9.47;5.23;;;37.60;43.60;;;;;;6188639;23;20436;-89
2021/06/21 10:05:41;;;;;;;5.40;2.53;;;39.30;42.10;;;;;;6189126;23;20520;-89
2021/06/21 10:08:08;;;;;;;4.37;1.63;;;41.70;38.90;;;;;;6189055;23;20394;-89
2021/06/21 10:10:37;;;;;;;5.00;1.73;;;41.20;37.10;;;;;;6188889;23;20410;-89
2021/06/21 10:13:04;;;;;;;3.43;2.30;;;39.40;38.80;;;;;;6191458;23;20511;-89
2021/06/21 10:15:31;;;;;;;4.57;1.80;;;37.50;42.20;;;;;;6190647;23;20471;-86
2021/06/21 10:17:58;;;;;;;5.13;2.20;;;37.60;42.60;;;;;;6185948;23;20406;-91
2021/06/21 10:20:25;;;;;;;5.30;2.70;;;38.60;41.10;;;;;;6189418;23;20402;-90
2021/06/21 10:22:52;;;;;;;3.10;2.80;;;39.60;39.20;;;;;;6189199;23;20436;-91
2021/06/21 10:25:22;;;;;;;4.43;2.73;;;40.30;37.10;;;;;;6194317;23;20437;-90
2021/06/21 10:27:50;;;;;;;3.17;2.20;;;40.80;36.30;;;;;;6192679;23;20468;-91
2021/06/21 10:30:20;;;;;;;3.00;1.90;;;39.60;37.70;;;;;;6190080;23;20402;-90
2021/06/21 10:32:49;;;;;;;3.70;1.77;;;39.80;37.90;;;;;;6211113;23;20428;-91
2021/06/21 10:35:17;;;;;;;5.30;1.90;;;39.90;37.20;;;;;;6191905;23;20428;-90
2021/06/21 10:37:59;;;;;;;5.23;3.17;;;38.70;39.00;;;;;;6193300;23;20409;-90
2021/06/21 10:40:27;;;;;;;13.60;4.70;;;37.90;40.40;;;;;;6200973;23;20405;-91
2021/06/21 10:42:57;;;;;;;6.87;1.60;;;38.70;40.20;;;;;;6201439;23;20490;-90
2021/06/21 10:45:25;;;;;;;2.93;2.23;;;40.50;38.50;;;;;;6201969;23;20442;-91
2021/06/21 10:48:07;;;;;;;4.23;2.13;;;40.20;36.60;;;;;;6193204;23;20484;-90
2021/06/21 10:50:48;;;;;;;4.23;1.73;;;40.90;36.90;;;;;;6191049;23;20390;-91
2021/06/21 10:53:16;;;;;;;3.30;1.80;;;40.80;35.90;;;;;;6203213;23;20429;-91
2021/06/21 10:55:54;;;;;;;2.27;1.57;;;42.10;35.30;;;;;;6189808;23;20501;-90
2021/06/21 10:58:45;;;;;;;6.33;1.93;;;41.30;33.40;;;;;;6190875;23;20445;-91
2021/06/21 11:01:54;;;;;;;2.90;1.80;;;41.70;34.30;;;;;;6193273;23;20433;-91
2021/06/21 11:04:44;;;;;;;3.83;1.63;;;40.40;35.70;;;;;;6194791;23;20441;-90
2021/06/21 11:07:12;;;;;;;3.33;3.03;;;37.90;37.60;;;;;;6197244;23;20390;-90
2021/06/21 11:09:41;;;;;;;2.70;1.53;;;38.40;38.40;;;;;;6211879;23;20404;-90
2021/06/21 11:12:33;;;;;;;6.50;3.50;;;39.30;37.30;;;;;;6212271;23;20406;-90
2021/06/21 11:15:17;;;;;;;14.33;4.90;;;39.60;36.80;;;;;;6205921;23;20386;-90
2021/06/21 11:17:58;;;;;;;2.90;1.47;;;40.10;36.00;;;;;;6212022;23;20394;-89
2021/06/21 11:20:37;;;;;;;6.07;2.63;;;38.50;37.40;;;;;;6201567;23;20453;-90
2021/06/21 11:23:06;;;;;;;3.43;1.90;;;37.10;39.80;;;;;;6198494;23;20414;-91
2021/06/21 11:25:35;;;;;;;2.97;2.13;;;35.80;42.50;;;;;;6197054;23;20438;-91
2021/06/21 11:28:02;;;;;;;6.63;2.67;;;34.60;43.40;;;;;;6211120;23;20406;-90
2021/06/21 11:30:34;;;;;;;3.30;2.10;;;34.30;44.30;;;;;;6210075;23;20456;-91
2021/06/21 11:33:04;;;;;;;3.23;1.67;;;35.20;44.60;;;;;;6201516;23;20438;-91
2021/06/21 11:35:56;;;;;;;8.37;3.20;;;34.40;44.50;;;;;;6199097;23;20956;-91
2021/06/21 11:38:34;;;;;;;6.03;2.13;;;33.60;45.30;;;;;;6194409;23;20394;-90
2021/06/21 11:41:23;;;;;;;4.23;2.00;;;33.10;47.40;;;;;;6196963;23;20394;-91
2021/06/21 11:43:52;;;;;;;3.83;2.17;;;36.40;44.60;;;;;;6206608;23;20430;-90
2021/06/21 11:46:41;;;;;;;4.83;2.10;;;38.30;39.80;;;;;;6211627;23;20433;-90
2021/06/21 11:49:09;;;;;;;5.17;2.53;;;37.30;40.00;;;;;;6212550;23;20444;-88
2021/06/21 11:51:36;;;;;;;5.27;2.67;;;36.00;41.50;;;;;;6212197;23;20406;-91
2021/06/21 11:54:04;;;;;;;5.20;2.00;;;36.00;43.90;;;;;;6205431;23;20426;-91
2021/06/21 11:56:32;;;;;;;5.27;2.70;;;37.00;41.70;;;;;;6204263;23;20431;-91
2021/06/21 11:59:00;;;;;;;3.00;1.80;;;38.00;39.30;;;;;;6202431;23;20885;-91
2021/06/21 12:01:42;;;;;;;1.97;1.70;;;39.30;37.80;;;;;;6194576;23;20410;-90
2021/06/21 12:04:10;;;;;;;5.43;1.77;;;40.60;36.10;;;;;;6192215;23;21124;-90
2021/06/21 12:06:37;;;;;;;2.50;1.67;;;42.00;34.80;;;;;;6191872;23;20458;-91
2021/06/21 12:09:07;;;;;;;2.70;2.03;;;44.10;33.20;;;;;;6201859;23;20424;-91
2021/06/21 12:11:42;;;;;;;3.40;1.90;;;45.00;31.10;;;;;;6207208;23;20402;-91
2021/06/21 12:14:11;;;;;;;4.40;2.60;;;45.20;29.80;;;;;;6196844;23;20483;-91
2021/06/21 12:16:42;;;;;;;2.80;1.80;;;45.90;29.20;;;;;;6192271;23;20403;-91
2021/06/21 12:19:11;;;;;;;3.73;1.80;;;45.80;29.00;;;;;;6193547;23;20422;-91
2021/06/21 12:21:40;;;;;;;3.30;1.70;;;46.60;29.10;;;;;;6194962;23;20907;-90
2021/06/21 12:24:22;;;;;;;2.40;1.83;;;46.90;28.40;;;;;;6206134;23;20429;-88
2021/06/21 12:26:52;;;;;;;2.87;2.20;;;47.50;27.80;;;;;;6196521;23;20437;-89
2021/06/21 12:29:28;;;;;;;3.90;1.67;;;46.60;27.90;;;;;;6196929;23;20390;-90
2021/06/21 12:31:58;;;;;;;3.13;2.10;;;46.20;28.50;;;;;;6189931;23;20481;-90
2021/06/21 12:34:50;;;;;;;2.87;1.67;;;45.90;27.50;;;;;;6196916;23;20425;-89
2021/06/21 12:37:19;;;;;;;7.30;3.30;;;45.40;28.40;;;;;;6198562;23;20403;-89
2021/06/21 12:39:48;;;;;;;5.40;2.20;;;44.10;29.50;;;;;;6193061;23;20410;-89
2021/06/21 12:42:17;;;;;;;4.43;1.50;;;44.50;29.70;;;;;;6191675;23;20884;-89
2021/06/21 12:44:45;;;;;;;5.40;1.90;;;44.80;29.30;;;;;;6190490;23;20677;-89
2021/06/21 12:47:17;;;;;;;2.50;2.27;;;45.40;28.60;;;;;;6199803;23;20429;-89
2021/06/21 12:49:45;;;;;;;3.10;1.80;;;44.50;29.40;;;;;;6197627;23;20406;-89
2021/06/21 12:52:17;;;;;;;4.33;1.90;;;42.90;30.40;;;;;;6192546;23;20448;-89
2021/06/21 12:54:45;;;;;;;6.43;1.97;;;42.80;32.40;;;;;;6189411;23;20370;-88
2021/06/21 12:57:13;;;;;;;3.30;2.10;;;42.20;32.30;;;;;;6191142;23;20406;-89
2021/06/21 12:59:42;;;;;;;4.33;2.70;;;41.00;33.50;;;;;;6196953;23;20417;-89
2021/06/21 13:02:20;;;;;;;5.60;2.83;;;39.40;36.30;;;;;;6202480;23;20401;-89
2021/06/21 13:04:56;;;;;;;6.63;2.23;;;38.30;37.70;;;;;;6182146;23;20391;-88
2021/06/21 13:07:27;;;;;;;2.50;1.80;;;37.20;38.90;;;;;;6172354;23;20391;-90
2021/06/21 13:09:56;;;;;;;3.20;2.00;;;36.50;40.30;;;;;;6167558;23;20418;-90